Beechburg, Kentucky
Current Conditions -  °F | °C
As of 5:50 PM on Monday 24 Nov 2014 (Local Time) from KSYM Reporting Station
Clear Clear  
Wind Chill: 44°   Ceiling: Unl
Heat Index: 46°   Visibility: 10mi
Dew Point: 39°   Wind: 6mph
Humidity: 76%   Direction: NA
Pressure: 29.83"   Gusts: 12mph
Location:  38.3421°N, 83.5593°W
Report Text: KSYM 242250Z AUTO VRB05G10KT 10SM CLR 08/04 A2983 RMK AO2
Loading
Personal Weather Stations






























Interactive Weather Map New forecast layout! Learn more

10-Day Weather Forecast

Advertisements
Track Severe Weather on mobile